Argonia, Kansas
Current Conditions -  °F | °C
As of 6:53 PM on Thursday 30 Oct 2014 (Local Time) from KICT Reporting Station
Clear Clear  
Wind Chill: 66°   Ceiling: Unl
Heat Index: 66°   Visibility: 10mi
Dew Point: 33°   Wind: 13mph
Humidity: 29%   Direction: 340°NNW
Pressure: 30.15"   Gusts: NA
Location:  37.27°N, 97.77°W
Report Text: KICT 302353Z 34011KT 10SM CLR 19/01 A3015 RMK AO2 SLP206 T01890006 10233 20183 53012
Loading
Personal Weather Stations






























Interactive Weather Map
Tropical Storm Tracking
New forecast layout! Learn more

10-Day Weather Forecast

Advertisements
Track Severe Weather on mobile